sensor_id;sensor_type;location;lat;lon;timestamp;P1;durP1;ratioP1;P2;durP2;ratioP2
21034;SDS011;10676;50.848;3.272;2023-07-16T00:00:46;15.55;;;3.70;;
21034;SDS011;10676;50.848;3.272;2023-07-16T00:03:12;12.63;;;3.50;;
21034;SDS011;10676;50.848;3.272;2023-07-16T00:05:39;11.52;;;3.50;;
21034;SDS011;10676;50.848;3.272;2023-07-16T00:08:04;13.60;;;3.80;;
21034;SDS011;10676;50.848;3.272;2023-07-16T00:10:33;9.40;;;3.30;;
21034;SDS011;10676;50.848;3.272;2023-07-16T00:13:05;13.00;;;3.45;;
21034;SDS011;10676;50.848;3.272;2023-07-16T00:15:30;8.32;;;3.22;;
21034;SDS011;10676;50.848;3.272;2023-07-16T00:17:56;13.68;;;3.47;;
21034;SDS011;10676;50.848;3.272;2023-07-16T00:20:22;11.82;;;3.10;;
21034;SDS011;10676;50.848;3.272;2023-07-16T00:22:51;10.38;;;3.50;;
21034;SDS011;10676;50.848;3.272;2023-07-16T00:25:17;11.50;;;3.08;;
21034;SDS011;10676;50.848;3.272;2023-07-16T00:27:43;8.20;;;3.00;;
21034;SDS011;10676;50.848;3.272;2023-07-16T00:30:08;8.63;;;2.97;;
21034;SDS011;10676;50.848;3.272;2023-07-16T00:32:34;9.45;;;3.58;;
21034;SDS011;10676;50.848;3.272;2023-07-16T00:35:00;9.35;;;3.17;;
21034;SDS011;10676;50.848;3.272;2023-07-16T00:37:26;11.00;;;3.10;;
21034;SDS011;10676;50.848;3.272;2023-07-16T00:39:52;9.45;;;2.97;;
21034;SDS011;10676;50.848;3.272;2023-07-16T00:42:18;9.02;;;3.20;;
21034;SDS011;10676;50.848;3.272;2023-07-16T00:44:43;9.40;;;2.95;;
21034;SDS011;10676;50.848;3.272;2023-07-16T00:47:09;7.85;;;2.70;;
21034;SDS011;10676;50.848;3.272;2023-07-16T00:49:36;11.77;;;3.22;;
21034;SDS011;10676;50.848;3.272;2023-07-16T00:52:03;7.43;;;2.72;;
21034;SDS011;10676;50.848;3.272;2023-07-16T00:54:30;11.52;;;3.75;;
21034;SDS011;10676;50.848;3.272;2023-07-16T00:56:57;7.82;;;3.17;;
21034;SDS011;10676;50.848;3.272;2023-07-16T00:59:23;7.30;;;3.33;;
21034;SDS011;10676;50.848;3.272;2023-07-16T01:01:48;6.78;;;3.33;;
21034;SDS011;10676;50.848;3.272;2023-07-16T01:04:14;8.90;;;3.47;;
21034;SDS011;10676;50.848;3.272;2023-07-16T01:06:41;9.52;;;3.85;;
21034;SDS011;10676;50.848;3.272;2023-07-16T01:09:15;8.85;;;4.03;;
21034;SDS011;10676;50.848;3.272;2023-07-16T01:11:45;8.57;;;4.28;;
21034;SDS011;10676;50.848;3.272;2023-07-16T01:14:14;9.05;;;3.75;;
21034;SDS011;10676;50.848;3.272;2023-07-16T01:16:42;10.88;;;3.63;;
21034;SDS011;10676;50.848;3.272;2023-07-16T01:19:08;11.68;;;3.88;;
21034;SDS011;10676;50.848;3.272;2023-07-16T01:27:25;6.53;;;3.05;;
21034;SDS011;10676;50.848;3.272;2023-07-16T01:29:58;7.65;;;3.13;;
21034;SDS011;10676;50.848;3.272;2023-07-16T01:32:28;6.00;;;3.25;;
21034;SDS011;10676;50.848;3.272;2023-07-16T01:34:55;8.55;;;3.22;;
21034;SDS011;10676;50.848;3.272;2023-07-16T01:37:22;9.55;;;3.15;;
21034;SDS011;10676;50.848;3.272;2023-07-16T01:39:47;12.85;;;3.03;;
21034;SDS011;10676;50.848;3.272;2023-07-16T01:42:13;7.75;;;3.08;;
21034;SDS011;10676;50.848;3.272;2023-07-16T01:44:39;6.95;;;3.00;;
21034;SDS011;10676;50.848;3.272;2023-07-16T01:47:15;7.13;;;3.45;;
21034;SDS011;10676;50.848;3.272;2023-07-16T01:49:57;7.65;;;3.25;;
21034;SDS011;10676;50.848;3.272;2023-07-16T01:52:22;10.10;;;3.95;;
21034;SDS011;10676;50.848;3.272;2023-07-16T01:54:48;7.20;;;3.75;;
21034;SDS011;10676;50.848;3.272;2023-07-16T01:57:14;8.38;;;3.97;;
21034;SDS011;10676;50.848;3.272;2023-07-16T01:59:39;12.85;;;3.95;;
21034;SDS011;10676;50.848;3.272;2023-07-16T02:02:05;11.38;;;3.70;;
21034;SDS011;10676;50.848;3.272;2023-07-16T02:04:31;9.73;;;4.03;;
21034;SDS011;10676;50.848;3.272;2023-07-16T02:06:56;8.52;;;4.35;;
21034;SDS011;10676;50.848;3.272;2023-07-16T02:09:22;11.38;;;4.78;;
21034;SDS011;10676;50.848;3.272;2023-07-16T02:11:48;10.02;;;4.38;;
21034;SDS011;10676;50.848;3.272;2023-07-16T02:14:14;10.55;;;4.45;;
21034;SDS011;10676;50.848;3.272;2023-07-16T02:16:41;10.55;;;4.22;;
21034;SDS011;10676;50.848;3.272;2023-07-16T02:19:06;16.35;;;4.53;;
21034;SDS011;10676;50.848;3.272;2023-07-16T02:21:32;13.38;;;5.13;;
21034;SDS011;10676;50.848;3.272;2023-07-16T02:23:58;12.98;;;4.80;;
21034;SDS011;10676;50.848;3.272;2023-07-16T02:26:24;11.60;;;4.70;;
21034;SDS011;10676;50.848;3.272;2023-07-16T02:28:50;11.05;;;4.72;;
21034;SDS011;10676;50.848;3.272;2023-07-16T02:31:15;9.18;;;5.07;;
21034;SDS011;10676;50.848;3.272;2023-07-16T02:33:41;12.13;;;5.20;;
21034;SDS011;10676;50.848;3.272;2023-07-16T02:36:07;9.48;;;4.40;;
21034;SDS011;10676;50.848;3.272;2023-07-16T02:38:33;11.45;;;4.88;;
21034;SDS011;10676;50.848;3.272;2023-07-16T02:40:58;9.02;;;4.53;;
21034;SDS011;10676;50.848;3.272;2023-07-16T02:43:24;11.95;;;4.85;;
21034;SDS011;10676;50.848;3.272;2023-07-16T02:45:50;7.25;;;4.30;;
21034;SDS011;10676;50.848;3.272;2023-07-16T02:48:16;11.52;;;4.30;;
21034;SDS011;10676;50.848;3.272;2023-07-16T02:50:41;10.23;;;4.32;;
21034;SDS011;10676;50.848;3.272;2023-07-16T02:53:07;8.00;;;3.95;;
21034;SDS011;10676;50.848;3.272;2023-07-16T02:55:36;7.90;;;4.00;;
21034;SDS011;10676;50.848;3.272;2023-07-16T02:58:02;11.48;;;4.70;;
21034;SDS011;10676;50.848;3.272;2023-07-16T03:00:29;13.35;;;4.55;;
21034;SDS011;10676;50.848;3.272;2023-07-16T03:02:55;11.60;;;4.03;;
21034;SDS011;10676;50.848;3.272;2023-07-16T03:05:23;13.48;;;5.30;;
21034;SDS011;10676;50.848;3.272;2023-07-16T03:07:49;7.93;;;4.20;;
21034;SDS011;10676;50.848;3.272;2023-07-16T03:10:15;9.57;;;4.82;;
21034;SDS011;10676;50.848;3.272;2023-07-16T03:12:40;12.82;;;4.60;;
21034;SDS011;10676;50.848;3.272;2023-07-16T03:15:06;9.20;;;4.68;;
21034;SDS011;10676;50.848;3.272;2023-07-16T03:17:32;10.93;;;4.28;;
21034;SDS011;10676;50.848;3.272;2023-07-16T03:19:58;15.40;;;4.88;;
21034;SDS011;10676;50.848;3.272;2023-07-16T03:22:24;11.05;;;5.05;;
21034;SDS011;10676;50.848;3.272;2023-07-16T03:24:49;13.63;;;5.05;;
21034;SDS011;10676;50.848;3.272;2023-07-16T03:27:15;8.57;;;4.30;;
21034;SDS011;10676;50.848;3.272;2023-07-16T03:29:41;10.63;;;4.63;;
21034;SDS011;10676;50.848;3.272;2023-07-16T03:32:06;10.43;;;4.22;;
21034;SDS011;10676;50.848;3.272;2023-07-16T03:34:32;9.40;;;4.65;;
21034;SDS011;10676;50.848;3.272;2023-07-16T03:36:58;13.57;;;4.47;;
21034;SDS011;10676;50.848;3.272;2023-07-16T03:39:23;11.55;;;4.65;;
21034;SDS011;10676;50.848;3.272;2023-07-16T03:41:49;11.35;;;4.70;;
21034;SDS011;10676;50.848;3.272;2023-07-16T03:44:15;14.15;;;5.18;;
21034;SDS011;10676;50.848;3.272;2023-07-16T03:46:40;7.80;;;4.82;;
21034;SDS011;10676;50.848;3.272;2023-07-16T03:49:07;9.70;;;4.50;;
21034;SDS011;10676;50.848;3.272;2023-07-16T03:51:33;11.23;;;4.75;;
21034;SDS011;10676;50.848;3.272;2023-07-16T03:53:59;21.73;;;5.50;;
21034;SDS011;10676;50.848;3.272;2023-07-16T03:56:24;11.60;;;5.00;;
21034;SDS011;10676;50.848;3.272;2023-07-16T03:58:50;9.32;;;4.88;;
21034;SDS011;10676;50.848;3.272;2023-07-16T04:01:16;13.50;;;5.20;;
21034;SDS011;10676;50.848;3.272;2023-07-16T04:03:41;11.05;;;5.20;;
21034;SDS011;10676;50.848;3.272;2023-07-16T04:06:08;12.13;;;4.63;;
21034;SDS011;10676;50.848;3.272;2023-07-16T04:08:35;9.63;;;5.25;;
21034;SDS011;10676;50.848;3.272;2023-07-16T04:11:01;12.73;;;5.40;;
21034;SDS011;10676;50.848;3.272;2023-07-16T04:13:30;16.30;;;6.40;;
21034;SDS011;10676;50.848;3.272;2023-07-16T04:15:56;13.52;;;5.68;;
21034;SDS011;10676;50.848;3.272;2023-07-16T04:18:23;13.73;;;5.75;;
21034;SDS011;10676;50.848;3.272;2023-07-16T04:20:49;13.65;;;5.72;;
21034;SDS011;10676;50.848;3.272;2023-07-16T04:23:14;14.20;;;5.80;;
21034;SDS011;10676;50.848;3.272;2023-07-16T04:25:40;15.05;;;5.78;;
21034;SDS011;10676;50.848;3.272;2023-07-16T04:28:06;10.73;;;5.90;;
21034;SDS011;10676;50.848;3.272;2023-07-16T04:30:32;15.05;;;6.35;;
21034;SDS011;10676;50.848;3.272;2023-07-16T04:32:57;10.15;;;5.68;;
21034;SDS011;10676;50.848;3.272;2023-07-16T04:35:23;15.45;;;5.82;;
21034;SDS011;10676;50.848;3.272;2023-07-16T04:37:49;17.02;;;5.47;;
21034;SDS011;10676;50.848;3.272;2023-07-16T04:40:14;13.23;;;5.63;;
21034;SDS011;10676;50.848;3.272;2023-07-16T04:42:40;11.38;;;5.85;;
21034;SDS011;10676;50.848;3.272;2023-07-16T04:45:06;11.02;;;5.32;;
21034;SDS011;10676;50.848;3.272;2023-07-16T04:47:32;13.20;;;6.18;;
21034;SDS011;10676;50.848;3.272;2023-07-16T04:49:58;13.13;;;5.68;;
21034;SDS011;10676;50.848;3.272;2023-07-16T04:52:24;10.57;;;5.65;;
21034;SDS011;10676;50.848;3.272;2023-07-16T04:54:49;13.80;;;5.95;;
21034;SDS011;10676;50.848;3.272;2023-07-16T04:57:15;12.50;;;5.75;;
21034;SDS011;10676;50.848;3.272;2023-07-16T04:59:41;16.58;;;6.03;;
21034;SDS011;10676;50.848;3.272;2023-07-16T05:02:06;15.35;;;6.32;;
21034;SDS011;10676;50.848;3.272;2023-07-16T05:04:33;12.65;;;6.35;;
21034;SDS011;10676;50.848;3.272;2023-07-16T05:07:00;12.98;;;5.72;;
21034;SDS011;10676;50.848;3.272;2023-07-16T05:09:26;11.35;;;6.38;;
21034;SDS011;10676;50.848;3.272;2023-07-16T05:11:52;15.90;;;6.35;;
21034;SDS011;10676;50.848;3.272;2023-07-16T05:14:18;11.82;;;5.53;;
21034;SDS011;10676;50.848;3.272;2023-07-16T05:16:43;19.38;;;6.63;;
21034;SDS011;10676;50.848;3.272;2023-07-16T05:19:09;13.43;;;6.40;;
21034;SDS011;10676;50.848;3.272;2023-07-16T05:21:35;13.15;;;6.15;;
21034;SDS011;10676;50.848;3.272;2023-07-16T05:24:01;12.52;;;6.30;;
21034;SDS011;10676;50.848;3.272;2023-07-16T05:26:27;15.05;;;6.35;;
21034;SDS011;10676;50.848;3.272;2023-07-16T05:28:52;9.95;;;6.00;;
21034;SDS011;10676;50.848;3.272;2023-07-16T05:31:18;14.93;;;6.15;;
21034;SDS011;10676;50.848;3.272;2023-07-16T05:33:43;15.82;;;6.80;;
21034;SDS011;10676;50.848;3.272;2023-07-16T05:36:09;14.98;;;6.95;;
21034;SDS011;10676;50.848;3.272;2023-07-16T05:38:35;11.45;;;5.88;;
21034;SDS011;10676;50.848;3.272;2023-07-16T05:41:03;17.33;;;6.75;;
21034;SDS011;10676;50.848;3.272;2023-07-16T05:43:30;13.23;;;6.85;;
21034;SDS011;10676;50.848;3.272;2023-07-16T05:45:56;12.18;;;6.10;;
21034;SDS011;10676;50.848;3.272;2023-07-16T05:48:21;13.82;;;6.82;;
21034;SDS011;10676;50.848;3.272;2023-07-16T05:50:49;15.80;;;6.55;;
21034;SDS011;10676;50.848;3.272;2023-07-16T05:53:14;11.85;;;6.10;;
21034;SDS011;10676;50.848;3.272;2023-07-16T05:55:40;12.95;;;6.15;;
21034;SDS011;10676;50.848;3.272;2023-07-16T05:58:05;14.82;;;6.45;;
21034;SDS011;10676;50.848;3.272;2023-07-16T06:00:31;13.05;;;5.97;;
21034;SDS011;10676;50.848;3.272;2023-07-16T06:02:57;16.88;;;6.45;;
21034;SDS011;10676;50.848;3.272;2023-07-16T06:05:23;13.93;;;6.53;;
21034;SDS011;10676;50.848;3.272;2023-07-16T06:07:52;12.40;;;5.47;;
21034;SDS011;10676;50.848;3.272;2023-07-16T06:10:17;11.88;;;5.88;;
21034;SDS011;10676;50.848;3.272;2023-07-16T06:12:43;10.05;;;5.75;;
21034;SDS011;10676;50.848;3.272;2023-07-16T06:15:09;13.30;;;6.10;;
21034;SDS011;10676;50.848;3.272;2023-07-16T06:17:35;12.88;;;5.93;;
21034;SDS011;10676;50.848;3.272;2023-07-16T06:20:01;14.15;;;6.07;;
21034;SDS011;10676;50.848;3.272;2023-07-16T06:22:28;10.82;;;5.93;;
21034;SDS011;10676;50.848;3.272;2023-07-16T06:24:53;12.25;;;6.15;;
21034;SDS011;10676;50.848;3.272;2023-07-16T06:27:19;13.93;;;5.97;;
21034;SDS011;10676;50.848;3.272;2023-07-16T06:29:45;12.90;;;6.07;;
21034;SDS011;10676;50.848;3.272;2023-07-16T06:32:11;12.75;;;5.97;;
21034;SDS011;10676;50.848;3.272;2023-07-16T06:34:40;12.60;;;6.10;;
21034;SDS011;10676;50.848;3.272;2023-07-16T06:37:05;14.13;;;6.32;;
21034;SDS011;10676;50.848;3.272;2023-07-16T06:39:31;14.45;;;6.03;;
21034;SDS011;10676;50.848;3.272;2023-07-16T06:41:57;16.60;;;6.35;;
21034;SDS011;10676;50.848;3.272;2023-07-16T06:44:22;20.52;;;6.60;;
21034;SDS011;10676;50.848;3.272;2023-07-16T06:46:48;13.18;;;5.63;;
21034;SDS011;10676;50.848;3.272;2023-07-16T06:49:14;13.38;;;5.72;;
21034;SDS011;10676;50.848;3.272;2023-07-16T06:51:40;11.70;;;5.30;;
21034;SDS011;10676;50.848;3.272;2023-07-16T06:54:06;10.63;;;5.60;;
21034;SDS011;10676;50.848;3.272;2023-07-16T06:56:32;14.50;;;5.88;;
21034;SDS011;10676;50.848;3.272;2023-07-16T06:58:58;11.15;;;5.50;;
21034;SDS011;10676;50.848;3.272;2023-07-16T07:01:24;12.60;;;5.90;;
21034;SDS011;10676;50.848;3.272;2023-07-16T07:03:49;13.68;;;6.00;;
21034;SDS011;10676;50.848;3.272;2023-07-16T07:06:15;15.20;;;6.28;;
21034;SDS011;10676;50.848;3.272;2023-07-16T07:08:41;13.50;;;5.47;;
21034;SDS011;10676;50.848;3.272;2023-07-16T07:11:06;14.95;;;6.20;;
21034;SDS011;10676;50.848;3.272;2023-07-16T07:13:32;10.80;;;5.88;;
21034;SDS011;10676;50.848;3.272;2023-07-16T07:15:58;10.60;;;5.68;;
21034;SDS011;10676;50.848;3.272;2023-07-16T07:18:23;14.57;;;5.63;;
21034;SDS011;10676;50.848;3.272;2023-07-16T07:20:49;11.80;;;5.20;;
21034;SDS011;10676;50.848;3.272;2023-07-16T07:23:18;12.70;;;5.47;;
21034;SDS011;10676;50.848;3.272;2023-07-16T07:25:48;10.15;;;5.57;;
21034;SDS011;10676;50.848;3.272;2023-07-16T07:28:16;15.55;;;5.25;;
21034;SDS011;10676;50.848;3.272;2023-07-16T07:30:41;13.55;;;4.95;;
21034;SDS011;10676;50.848;3.272;2023-07-16T07:35:59;8.25;;;4.60;;
21034;SDS011;10676;50.848;3.272;2023-07-16T07:38:25;12.05;;;4.88;;
21034;SDS011;10676;50.848;3.272;2023-07-16T07:40:50;10.32;;;4.93;;
21034;SDS011;10676;50.848;3.272;2023-07-16T07:43:16;8.60;;;5.03;;
21034;SDS011;10676;50.848;3.272;2023-07-16T07:45:42;13.75;;;4.80;;
21034;SDS011;10676;50.848;3.272;2023-07-16T07:48:08;14.32;;;5.30;;
21034;SDS011;10676;50.848;3.272;2023-07-16T07:50:34;14.48;;;5.20;;
21034;SDS011;10676;50.848;3.272;2023-07-16T07:53:00;15.00;;;5.28;;
21034;SDS011;10676;50.848;3.272;2023-07-16T07:55:25;14.05;;;5.32;;
21034;SDS011;10676;50.848;3.272;2023-07-16T07:57:51;14.05;;;5.30;;
21034;SDS011;10676;50.848;3.272;2023-07-16T08:00:17;15.32;;;5.18;;
21034;SDS011;10676;50.848;3.272;2023-07-16T08:02:42;12.55;;;4.28;;
21034;SDS011;10676;50.848;3.272;2023-07-16T08:05:08;10.15;;;4.65;;
21034;SDS011;10676;50.848;3.272;2023-07-16T08:07:34;12.38;;;5.05;;
21034;SDS011;10676;50.848;3.272;2023-07-16T08:09:59;9.50;;;4.50;;
21034;SDS011;10676;50.848;3.272;2023-07-16T08:12:25;12.13;;;4.60;;
21034;SDS011;10676;50.848;3.272;2023-07-16T08:14:51;13.02;;;4.93;;
21034;SDS011;10676;50.848;3.272;2023-07-16T08:17:16;13.63;;;5.13;;
21034;SDS011;10676;50.848;3.272;2023-07-16T08:19:42;13.93;;;4.80;;
21034;SDS011;10676;50.848;3.272;2023-07-16T08:22:08;12.57;;;4.97;;
21034;SDS011;10676;50.848;3.272;2023-07-16T08:24:33;11.98;;;4.82;;
21034;SDS011;10676;50.848;3.272;2023-07-16T08:26:59;9.85;;;4.38;;
21034;SDS011;10676;50.848;3.272;2023-07-16T08:29:26;12.00;;;5.28;;
21034;SDS011;10676;50.848;3.272;2023-07-16T08:31:51;10.25;;;4.63;;
21034;SDS011;10676;50.848;3.272;2023-07-16T08:34:17;8.45;;;4.10;;
21034;SDS011;10676;50.848;3.272;2023-07-16T08:36:42;14.32;;;4.70;;
21034;SDS011;10676;50.848;3.272;2023-07-16T08:39:09;13.30;;;4.90;;
21034;SDS011;10676;50.848;3.272;2023-07-16T08:41:34;12.85;;;4.72;;
21034;SDS011;10676;50.848;3.272;2023-07-16T08:44:00;11.43;;;4.43;;
21034;SDS011;10676;50.848;3.272;2023-07-16T08:46:26;12.27;;;4.10;;
21034;SDS011;10676;50.848;3.272;2023-07-16T08:48:52;7.63;;;3.25;;
21034;SDS011;10676;50.848;3.272;2023-07-16T08:51:19;5.03;;;2.75;;
21034;SDS011;10676;50.848;3.272;2023-07-16T08:53:47;6.85;;;3.10;;
21034;SDS011;10676;50.848;3.272;2023-07-16T08:56:12;5.28;;;2.33;;
21034;SDS011;10676;50.848;3.272;2023-07-16T08:58:38;8.50;;;3.30;;
21034;SDS011;10676;50.848;3.272;2023-07-16T09:01:06;9.23;;;2.65;;
21034;SDS011;10676;50.848;3.272;2023-07-16T09:03:31;4.30;;;2.40;;
21034;SDS011;10676;50.848;3.272;2023-07-16T09:05:57;4.35;;;2.15;;
21034;SDS011;10676;50.848;3.272;2023-07-16T09:08:23;10.02;;;2.47;;
21034;SDS011;10676;50.848;3.272;2023-07-16T09:10:54;3.25;;;1.38;;
21034;SDS011;10676;50.848;3.272;2023-07-16T09:13:20;6.28;;;1.30;;
21034;SDS011;10676;50.848;3.272;2023-07-16T09:15:51;3.38;;;1.05;;
21034;SDS011;10676;50.848;3.272;2023-07-16T09:18:24;3.08;;;0.73;;
21034;SDS011;10676;50.848;3.272;2023-07-16T09:20:57;3.58;;;0.70;;
21034;SDS011;10676;50.848;3.272;2023-07-16T09:23:27;2.75;;;0.80;;
21034;SDS011;10676;50.848;3.272;2023-07-16T09:25:55;3.05;;;0.60;;
21034;SDS011;10676;50.848;3.272;2023-07-16T09:28:22;1.83;;;0.60;;
21034;SDS011;10676;50.848;3.272;2023-07-16T09:30:48;3.53;;;0.80;;
21034;SDS011;10676;50.848;3.272;2023-07-16T09:33:18;4.32;;;0.77;;
21034;SDS011;10676;50.848;3.272;2023-07-16T09:35:47;4.80;;;0.82;;
21034;SDS011;10676;50.848;3.272;2023-07-16T09:38:16;2.35;;;0.73;;
21034;SDS011;10676;50.848;3.272;2023-07-16T09:40:42;3.72;;;0.90;;
21034;SDS011;10676;50.848;3.272;2023-07-16T09:43:09;2.33;;;0.90;;
21034;SDS011;10676;50.848;3.272;2023-07-16T09:45:35;4.95;;;0.82;;
21034;SDS011;10676;50.848;3.272;2023-07-16T09:48:05;4.57;;;1.20;;
21034;SDS011;10676;50.848;3.272;2023-07-16T09:50:34;3.22;;;1.20;;
21034;SDS011;10676;50.848;3.272;2023-07-16T09:53:01;1.45;;;0.85;;
21034;SDS011;10676;50.848;3.272;2023-07-16T09:55:34;3.42;;;1.23;;
21034;SDS011;10676;50.848;3.272;2023-07-16T09:58:01;4.28;;;1.50;;
21034;SDS011;10676;50.848;3.272;2023-07-16T10:00:31;4.05;;;1.58;;
21034;SDS011;10676;50.848;3.272;2023-07-16T10:02:59;3.15;;;1.58;;
21034;SDS011;10676;50.848;3.272;2023-07-16T10:05:26;4.72;;;1.73;;
21034;SDS011;10676;50.848;3.272;2023-07-16T10:10:21;5.65;;;2.05;;
21034;SDS011;10676;50.848;3.272;2023-07-16T10:12:56;3.35;;;1.90;;
21034;SDS011;10676;50.848;3.272;2023-07-16T10:15:32;6.25;;;1.80;;
21034;SDS011;10676;50.848;3.272;2023-07-16T10:17:57;8.10;;;1.90;;
21034;SDS011;10676;50.848;3.272;2023-07-16T10:20:30;5.63;;;1.90;;
21034;SDS011;10676;50.848;3.272;2023-07-16T10:23:14;5.25;;;1.90;;
21034;SDS011;10676;50.848;3.272;2023-07-16T10:25:57;7.07;;;1.77;;
21034;SDS011;10676;50.848;3.272;2023-07-16T10:28:24;5.43;;;1.63;;
21034;SDS011;10676;50.848;3.272;2023-07-16T10:30:50;5.70;;;1.58;;
21034;SDS011;10676;50.848;3.272;2023-07-16T10:33:16;5.15;;;1.80;;
21034;SDS011;10676;50.848;3.272;2023-07-16T10:35:42;3.35;;;1.75;;
21034;SDS011;10676;50.848;3.272;2023-07-16T10:38:12;6.43;;;1.90;;
21034;SDS011;10676;50.848;3.272;2023-07-16T10:40:41;5.20;;;2.13;;
21034;SDS011;10676;50.848;3.272;2023-07-16T10:43:08;8.70;;;2.47;;
21034;SDS011;10676;50.848;3.272;2023-07-16T10:45:34;6.63;;;2.40;;
21034;SDS011;10676;50.848;3.272;2023-07-16T10:48:00;4.78;;;2.17;;
21034;SDS011;10676;50.848;3.272;2023-07-16T10:50:26;7.20;;;2.13;;
21034;SDS011;10676;50.848;3.272;2023-07-16T10:52:56;3.08;;;1.80;;
21034;SDS011;10676;50.848;3.272;2023-07-16T10:55:22;5.78;;;2.10;;
21034;SDS011;10676;50.848;3.272;2023-07-16T10:57:48;3.70;;;2.20;;
21034;SDS011;10676;50.848;3.272;2023-07-16T11:00:16;5.43;;;2.05;;
21034;SDS011;10676;50.848;3.272;2023-07-16T11:02:43;4.93;;;2.15;;
21034;SDS011;10676;50.848;3.272;2023-07-16T11:05:12;5.50;;;1.85;;
21034;SDS011;10676;50.848;3.272;2023-07-16T11:07:47;7.45;;;2.25;;
21034;SDS011;10676;50.848;3.272;2023-07-16T11:10:17;3.75;;;2.08;;
21034;SDS011;10676;50.848;3.272;2023-07-16T11:12:43;4.25;;;1.50;;
21034;SDS011;10676;50.848;3.272;2023-07-16T11:15:09;5.90;;;1.70;;
21034;SDS011;10676;50.848;3.272;2023-07-16T11:17:42;3.53;;;1.50;;
21034;SDS011;10676;50.848;3.272;2023-07-16T11:20:13;5.68;;;1.77;;
21034;SDS011;10676;50.848;3.272;2023-07-16T11:22:39;3.42;;;1.70;;
21034;SDS011;10676;50.848;3.272;2023-07-16T11:25:12;5.07;;;1.90;;
21034;SDS011;10676;50.848;3.272;2023-07-16T11:27:40;4.85;;;1.95;;
21034;SDS011;10676;50.848;3.272;2023-07-16T11:30:07;5.70;;;2.10;;
21034;SDS011;10676;50.848;3.272;2023-07-16T11:32:46;5.05;;;1.88;;
21034;SDS011;10676;50.848;3.272;2023-07-16T11:35:17;4.22;;;1.40;;
21034;SDS011;10676;50.848;3.272;2023-07-16T11:37:44;3.88;;;1.70;;
21034;SDS011;10676;50.848;3.272;2023-07-16T11:40:15;2.45;;;1.30;;
21034;SDS011;10676;50.848;3.272;2023-07-16T11:42:42;4.05;;;1.80;;
21034;SDS011;10676;50.848;3.272;2023-07-16T11:45:15;4.50;;;1.70;;
21034;SDS011;10676;50.848;3.272;2023-07-16T11:47:42;3.83;;;1.58;;
21034;SDS011;10676;50.848;3.272;2023-07-16T11:50:08;4.78;;;1.60;;
21034;SDS011;10676;50.848;3.272;2023-07-16T11:52:34;4.60;;;1.75;;
21034;SDS011;10676;50.848;3.272;2023-07-16T11:55:00;3.60;;;1.38;;
21034;SDS011;10676;50.848;3.272;2023-07-16T11:57:26;2.63;;;1.70;;
21034;SDS011;10676;50.848;3.272;2023-07-16T11:59:52;5.95;;;1.88;;
21034;SDS011;10676;50.848;3.272;2023-07-16T12:02:19;4.63;;;1.48;;
21034;SDS011;10676;50.848;3.272;2023-07-16T12:04:45;4.05;;;1.52;;
21034;SDS011;10676;50.848;3.272;2023-07-16T12:07:10;3.03;;;1.33;;
21034;SDS011;10676;50.848;3.272;2023-07-16T12:09:36;3.05;;;1.30;;
21034;SDS011;10676;50.848;3.272;2023-07-16T12:12:02;3.80;;;1.15;;
21034;SDS011;10676;50.848;3.272;2023-07-16T12:14:28;5.18;;;1.52;;
21034;SDS011;10676;50.848;3.272;2023-07-16T12:16:54;3.25;;;1.33;;
21034;SDS011;10676;50.848;3.272;2023-07-16T12:19:21;5.20;;;1.33;;
21034;SDS011;10676;50.848;3.272;2023-07-16T12:21:47;2.50;;;1.30;;
21034;SDS011;10676;50.848;3.272;2023-07-16T12:24:13;3.25;;;1.20;;
21034;SDS011;10676;50.848;3.272;2023-07-16T12:26:39;3.92;;;2.00;;
21034;SDS011;10676;50.848;3.272;2023-07-16T12:29:05;5.55;;;2.00;;
21034;SDS011;10676;50.848;3.272;2023-07-16T12:31:31;4.93;;;1.73;;
21034;SDS011;10676;50.848;3.272;2023-07-16T12:33:57;4.60;;;1.83;;
21034;SDS011;10676;50.848;3.272;2023-07-16T12:36:23;2.63;;;1.52;;
21034;SDS011;10676;50.848;3.272;2023-07-16T12:38:49;4.80;;;1.63;;
21034;SDS011;10676;50.848;3.272;2023-07-16T12:41:14;5.22;;;2.10;;
21034;SDS011;10676;50.848;3.272;2023-07-16T12:43:41;6.90;;;2.10;;
21034;SDS011;10676;50.848;3.272;2023-07-16T12:46:07;4.20;;;2.00;;
21034;SDS011;10676;50.848;3.272;2023-07-16T12:48:32;4.05;;;1.70;;
21034;SDS011;10676;50.848;3.272;2023-07-16T12:50:58;2.97;;;1.58;;
21034;SDS011;10676;50.848;3.272;2023-07-16T12:53:24;3.83;;;1.60;;
21034;SDS011;10676;50.848;3.272;2023-07-16T12:55:50;3.78;;;1.45;;
21034;SDS011;10676;50.848;3.272;2023-07-16T12:58:16;2.85;;;1.63;;
21034;SDS011;10676;50.848;3.272;2023-07-16T13:00:42;2.70;;;1.40;;
21034;SDS011;10676;50.848;3.272;2023-07-16T13:03:08;6.55;;;1.65;;
21034;SDS011;10676;50.848;3.272;2023-07-16T13:05:36;4.97;;;1.50;;
21034;SDS011;10676;50.848;3.272;2023-07-16T13:08:03;5.18;;;1.75;;
21034;SDS011;10676;50.848;3.272;2023-07-16T13:10:29;4.32;;;1.63;;
21034;SDS011;10676;50.848;3.272;2023-07-16T13:12:55;3.25;;;1.55;;
21034;SDS011;10676;50.848;3.272;2023-07-16T13:15:22;6.55;;;1.50;;
21034;SDS011;10676;50.848;3.272;2023-07-16T13:17:47;2.78;;;1.20;;
21034;SDS011;10676;50.848;3.272;2023-07-16T13:20:13;4.05;;;1.30;;
21034;SDS011;10676;50.848;3.272;2023-07-16T13:22:39;4.00;;;1.30;;
21034;SDS011;10676;50.848;3.272;2023-07-16T13:25:05;3.30;;;1.30;;
21034;SDS011;10676;50.848;3.272;2023-07-16T13:27:34;4.38;;;1.30;;
21034;SDS011;10676;50.848;3.272;2023-07-16T13:30:00;4.50;;;1.40;;
21034;SDS011;10676;50.848;3.272;2023-07-16T13:32:26;2.85;;;1.17;;
21034;SDS011;10676;50.848;3.272;2023-07-16T13:34:53;3.53;;;1.50;;
21034;SDS011;10676;50.848;3.272;2023-07-16T13:37:26;2.33;;;1.25;;
21034;SDS011;10676;50.848;3.272;2023-07-16T13:39:52;3.50;;;1.40;;
21034;SDS011;10676;50.848;3.272;2023-07-16T13:42:18;4.88;;;1.70;;
21034;SDS011;10676;50.848;3.272;2023-07-16T13:44:44;6.38;;;1.60;;
21034;SDS011;10676;50.848;3.272;2023-07-16T13:47:10;3.30;;;1.42;;
21034;SDS011;10676;50.848;3.272;2023-07-16T13:49:35;2.95;;;1.33;;
21034;SDS011;10676;50.848;3.272;2023-07-16T13:52:01;3.20;;;1.15;;
21034;SDS011;10676;50.848;3.272;2023-07-16T13:54:27;3.60;;;1.20;;
21034;SDS011;10676;50.848;3.272;2023-07-16T13:56:53;2.83;;;1.40;;
21034;SDS011;10676;50.848;3.272;2023-07-16T13:59:18;3.72;;;1.30;;
21034;SDS011;10676;50.848;3.272;2023-07-16T14:01:44;7.30;;;1.20;;
21034;SDS011;10676;50.848;3.272;2023-07-16T14:04:12;1.98;;;1.20;;
21034;SDS011;10676;50.848;3.272;2023-07-16T14:06:38;1.98;;;1.15;;
21034;SDS011;10676;50.848;3.272;2023-07-16T14:09:03;3.60;;;1.60;;
21034;SDS011;10676;50.848;3.272;2023-07-16T14:11:30;2.95;;;1.20;;
21034;SDS011;10676;50.848;3.272;2023-07-16T14:13:55;4.13;;;1.30;;
21034;SDS011;10676;50.848;3.272;2023-07-16T14:16:21;1.85;;;0.98;;
21034;SDS011;10676;50.848;3.272;2023-07-16T14:18:51;3.13;;;1.25;;
21034;SDS011;10676;50.848;3.272;2023-07-16T14:21:18;3.45;;;1.45;;
21034;SDS011;10676;50.848;3.272;2023-07-16T14:23:45;3.60;;;1.77;;
21034;SDS011;10676;50.848;3.272;2023-07-16T14:26:12;4.80;;;1.30;;
21034;SDS011;10676;50.848;3.272;2023-07-16T14:28:37;2.55;;;1.38;;
21034;SDS011;10676;50.848;3.272;2023-07-16T14:31:03;2.80;;;1.42;;
21034;SDS011;10676;50.848;3.272;2023-07-16T14:33:29;1.88;;;1.30;;
21034;SDS011;10676;50.848;3.272;2023-07-16T14:35:55;3.72;;;1.30;;
21034;SDS011;10676;50.848;3.272;2023-07-16T14:38:21;2.40;;;1.25;;
21034;SDS011;10676;50.848;3.272;2023-07-16T14:40:47;2.13;;;1.40;;
21034;SDS011;10676;50.848;3.272;2023-07-16T14:43:13;3.47;;;1.40;;
21034;SDS011;10676;50.848;3.272;2023-07-16T14:45:39;1.75;;;1.17;;
21034;SDS011;10676;50.848;3.272;2023-07-16T14:48:06;3.95;;;1.33;;